P4HSJ KPBI-KLAX
Flight info
| Callsign | P4HSJ |
|---|---|
| Flight time | N/A |
| Altitude | 38000 |
| Route | OLAKE3 JAYMC Y280 LEV JEPEG DBOYS MARCS LEJON FST J86 ELP J50 SSO J4 WLVRN ESTWD HLYWD1 |
| Aircraft | A320/M-SDE3FGHIRWY/LB1 |
Departure
| Time | 2026-04-26 13:05 |
|---|---|
| Airport | Palm Beach International Airport (KPBI) |
Arrival
| Time | N/A |
|---|---|
| Airport | Los Angeles International Airport (KLAX) |
| Time | Latitude | Longitude | Altitude | Speed | Heading |
|---|---|---|---|---|---|
| 2026-04-26 12:31 | 26.67982 | -80.10050 | 25 ft | 0 kts | 88° |
| 2026-04-26 13:01 | 26.67982 | -80.10048 | 24 ft | 1 kts | 88° |
| 2026-04-26 13:01 | 26.67982 | -80.10025 | 30 ft | 5 kts | 88° |
| 2026-04-26 13:01 | 26.67984 | -80.09976 | 24 ft | 8 kts | 88° |
| 2026-04-26 13:01 | 26.68020 | -80.09928 | 24 ft | 10 kts | 10° |
| 2026-04-26 13:02 | 26.68095 | -80.09924 | 27 ft | 11 kts | 4° |
| 2026-04-26 13:02 | 26.68170 | -80.09949 | 26 ft | 13 kts | 290° |
| 2026-04-26 13:02 | 26.68178 | -80.10061 | 30 ft | 16 kts | 273° |
| 2026-04-26 13:02 | 26.68184 | -80.10196 | 25 ft | 17 kts | 273° |
| 2026-04-26 13:03 | 26.68188 | -80.10302 | 25 ft | 15 kts | 272° |
| 2026-04-26 13:03 | 26.68194 | -80.10434 | 25 ft | 19 kts | 273° |
| 2026-04-26 13:03 | 26.68200 | -80.10580 | 25 ft | 14 kts | 272° |
| 2026-04-26 13:03 | 26.68205 | -80.10699 | 24 ft | 17 kts | 272° |
| 2026-04-26 13:04 | 26.68228 | -80.10824 | 26 ft | 16 kts | 324° |
| 2026-04-26 13:04 | 26.68317 | -80.10774 | 22 ft | 17 kts | 84° |
| 2026-04-26 13:04 | 26.68317 | -80.10746 | 23 ft | 0 kts | 92° |
| 2026-04-26 13:04 | 26.68313 | -80.10650 | 24 ft | 46 kts | 93° |
| 2026-04-26 13:05 | 26.68284 | -80.10013 | 28 ft | 117 kts | 92° |
| 2026-04-26 13:05 | 26.68232 | -80.08895 | 40 ft | 168 kts | 96° |
| 2026-04-26 13:05 | 26.68170 | -80.07499 | 480 ft | 185 kts | 93° |
| 2026-04-26 13:05 | 26.68163 | -80.06027 | 1187 ft | 193 kts | 91° |
| 2026-04-26 13:06 | 26.68460 | -80.04492 | 1611 ft | 220 kts | 66° |
| 2026-04-26 13:06 | 26.69217 | -80.02887 | 2098 ft | 247 kts | 63° |
| 2026-04-26 13:06 | 26.70063 | -80.01119 | 2808 ft | 265 kts | 63° |
| 2026-04-26 13:06 | 26.70958 | -79.99282 | 3780 ft | 272 kts | 58° |
| 2026-04-26 13:07 | 26.72309 | -79.97780 | 4807 ft | 279 kts | 30° |
| 2026-04-26 13:07 | 26.74161 | -79.97119 | 5827 ft | 283 kts | 8° |
| 2026-04-26 13:07 | 26.76118 | -79.96934 | 6885 ft | 284 kts | 353° |
| 2026-04-26 13:07 | 26.77998 | -79.97550 | 7873 ft | 284 kts | 329° |
| 2026-04-26 13:08 | 26.79520 | -79.98933 | 8897 ft | 283 kts | 307° |
| 2026-04-26 13:08 | 26.80461 | -80.00852 | 9930 ft | 284 kts | 288° |
| 2026-04-26 13:08 | 26.81117 | -80.02984 | 10564 ft | 300 kts | 288° |
| 2026-04-26 13:08 | 26.81811 | -80.05276 | 11117 ft | 316 kts | 288° |
| 2026-04-26 13:09 | 26.82529 | -80.07632 | 11988 ft | 322 kts | 289° |
| 2026-04-26 13:09 | 26.83252 | -80.09983 | 12923 ft | 325 kts | 289° |
| 2026-04-26 13:09 | 26.83996 | -80.12389 | 13876 ft | 329 kts | 290° |
| 2026-04-26 13:09 | 26.84747 | -80.14818 | 14705 ft | 332 kts | 290° |
| 2026-04-26 13:10 | 26.85506 | -80.17281 | 15502 ft | 336 kts | 290° |
| 2026-04-26 13:10 | 26.86275 | -80.19776 | 16280 ft | 341 kts | 290° |
| 2026-04-26 13:10 | 26.87053 | -80.22299 | 17059 ft | 345 kts | 290° |
| 2026-04-26 13:10 | 26.87843 | -80.24861 | 17819 ft | 350 kts | 290° |
| 2026-04-26 13:11 | 26.88643 | -80.27450 | 18538 ft | 354 kts | 290° |
| 2026-04-26 13:11 | 26.89454 | -80.30081 | 19238 ft | 358 kts | 290° |
| 2026-04-26 13:11 | 26.90264 | -80.32721 | 19985 ft | 360 kts | 290° |
| 2026-04-26 13:11 | 26.91079 | -80.35386 | 20778 ft | 363 kts | 289° |
| 2026-04-26 13:12 | 26.91624 | -80.38168 | 21534 ft | 369 kts | 279° |
| 2026-04-26 13:12 | 26.91934 | -80.41029 | 22287 ft | 372 kts | 279° |
| 2026-04-26 13:12 | 26.92242 | -80.43921 | 23036 ft | 375 kts | 279° |
| 2026-04-26 13:12 | 26.92550 | -80.46831 | 23749 ft | 378 kts | 279° |
| 2026-04-26 13:13 | 26.92862 | -80.49762 | 24382 ft | 381 kts | 279° |
| 2026-04-26 13:13 | 26.93178 | -80.52718 | 25012 ft | 384 kts | 279° |
| 2026-04-26 13:13 | 26.93495 | -80.55663 | 25634 ft | 387 kts | 280° |
| 2026-04-26 13:13 | 26.93818 | -80.58667 | 26264 ft | 390 kts | 280° |
| 2026-04-26 13:14 | 26.94143 | -80.61695 | 26888 ft | 393 kts | 280° |
| 2026-04-26 13:14 | 26.94472 | -80.64753 | 27500 ft | 397 kts | 280° |
| 2026-04-26 13:14 | 26.94802 | -80.67848 | 28112 ft | 400 kts | 280° |
| 2026-04-26 13:14 | 26.95129 | -80.70950 | 28726 ft | 403 kts | 280° |
| 2026-04-26 13:15 | 26.95460 | -80.74082 | 29316 ft | 406 kts | 280° |
| 2026-04-26 13:15 | 26.95794 | -80.77245 | 29900 ft | 410 kts | 280° |
| 2026-04-26 13:15 | 26.96056 | -80.80446 | 30397 ft | 414 kts | 277° |
| 2026-04-26 13:15 | 26.96174 | -80.82589 | 30696 ft | 417 kts | 276° |
| 2026-04-26 13:16 | 26.96293 | -80.85858 | 31133 ft | 421 kts | 275° |
| 2026-04-26 13:16 | 26.96376 | -80.89165 | 31558 ft | 424 kts | 275° |
| 2026-04-26 13:16 | 26.96482 | -80.93556 | 32206 ft | 425 kts | 275° |
| 2026-04-26 13:16 | 26.96579 | -80.96865 | 32807 ft | 424 kts | 275° |
| 2026-04-26 13:17 | 26.96777 | -81.02383 | 33800 ft | 422 kts | 276° |
| 2026-04-26 13:17 | 26.96911 | -81.05663 | 34339 ft | 421 kts | 276° |
| 2026-04-26 13:18 | 26.97183 | -81.12194 | 35380 ft | 419 kts | 276° |
| 2026-04-26 13:18 | 26.97307 | -81.15407 | 35874 ft | 418 kts | 275° |
| 2026-04-26 13:18 | 26.97541 | -81.21921 | 36838 ft | 417 kts | 275° |
| 2026-04-26 13:19 | 26.97657 | -81.25161 | 37307 ft | 416 kts | 275° |
| 2026-04-26 13:19 | 26.97775 | -81.28394 | 37761 ft | 416 kts | 275° |
| 2026-04-26 13:19 | 26.97898 | -81.31641 | 37956 ft | 416 kts | 276° |
| 2026-04-26 13:20 | 26.99057 | -81.37910 | 37985 ft | 409 kts | 294° |
| 2026-04-26 13:20 | 27.01798 | -81.43447 | 37987 ft | 406 kts | 303° |
| 2026-04-26 13:21 | 27.04828 | -81.48803 | 37984 ft | 407 kts | 303° |
| 2026-04-26 13:21 | 27.07863 | -81.54169 | 37989 ft | 408 kts | 303° |
| 2026-04-26 13:22 | 27.10880 | -81.59520 | 37990 ft | 408 kts | 303° |
| 2026-04-26 13:22 | 27.13913 | -81.64915 | 37997 ft | 409 kts | 303° |
| 2026-04-26 13:23 | 27.16946 | -81.70304 | 38001 ft | 408 kts | 304° |
| 2026-04-26 13:23 | 27.19982 | -81.75698 | 38002 ft | 408 kts | 303° |
| 2026-04-26 13:24 | 27.23015 | -81.81090 | 38009 ft | 408 kts | 304° |
| 2026-04-26 13:24 | 27.26040 | -81.86485 | 38007 ft | 407 kts | 303° |
| 2026-04-26 13:25 | 27.28648 | -81.92080 | 38008 ft | 410 kts | 290° |
| 2026-04-26 13:25 | 27.29926 | -81.98341 | 38005 ft | 412 kts | 284° |
| 2026-04-26 13:26 | 27.31108 | -82.04636 | 38005 ft | 411 kts | 285° |
| 2026-04-26 13:26 | 27.32301 | -82.10935 | 38008 ft | 411 kts | 285° |
| 2026-04-26 13:27 | 27.33478 | -82.17224 | 38010 ft | 411 kts | 285° |
| 2026-04-26 13:27 | 27.34649 | -82.23499 | 38011 ft | 410 kts | 285° |
| 2026-04-26 13:28 | 27.35816 | -82.29780 | 38013 ft | 410 kts | 285° |
| 2026-04-26 13:28 | 27.36970 | -82.36056 | 38014 ft | 409 kts | 285° |
| 2026-04-26 13:29 | 27.38126 | -82.42314 | 38017 ft | 408 kts | 285° |
| 2026-04-26 13:29 | 27.39269 | -82.48524 | 38019 ft | 407 kts | 285° |
| 2026-04-26 13:30 | 27.40410 | -82.54765 | 38022 ft | 407 kts | 285° |
| 2026-04-26 13:30 | 27.41557 | -82.60989 | 38021 ft | 406 kts | 285° |
| 2026-04-26 13:31 | 27.42722 | -82.67194 | 38020 ft | 405 kts | 285° |
| 2026-04-26 13:31 | 27.43884 | -82.73383 | 38017 ft | 404 kts | 285° |
| 2026-04-26 13:32 | 27.45015 | -82.79451 | 38011 ft | 403 kts | 285° |
| 2026-04-26 13:32 | 27.46163 | -82.85629 | 38010 ft | 402 kts | 285° |
| 2026-04-26 13:33 | 27.47299 | -82.91792 | 38009 ft | 402 kts | 285° |
| 2026-04-26 13:33 | 27.48430 | -82.97950 | 38008 ft | 401 kts | 285° |
| 2026-04-26 13:34 | 27.49562 | -83.04106 | 38006 ft | 401 kts | 285° |
| 2026-04-26 13:34 | 27.50697 | -83.10249 | 38004 ft | 401 kts | 285° |
| 2026-04-26 13:35 | 27.51826 | -83.16390 | 38006 ft | 400 kts | 285° |
| 2026-04-26 13:35 | 27.52943 | -83.22535 | 38000 ft | 400 kts | 285° |
| 2026-04-26 13:36 | 27.54059 | -83.28682 | 38003 ft | 400 kts | 285° |
| 2026-04-26 13:36 | 27.55167 | -83.34783 | 38000 ft | 400 kts | 285° |
| 2026-04-26 13:37 | 27.56284 | -83.40927 | 37997 ft | 400 kts | 285° |
| 2026-04-26 13:37 | 27.57391 | -83.47062 | 38001 ft | 400 kts | 285° |
| 2026-04-26 13:38 | 27.58500 | -83.53218 | 37998 ft | 400 kts | 285° |
| 2026-04-26 13:38 | 27.59607 | -83.59367 | 38000 ft | 400 kts | 285° |
| 2026-04-26 13:39 | 27.60712 | -83.65509 | 38004 ft | 400 kts | 285° |
| 2026-04-26 13:39 | 27.61812 | -83.71661 | 38000 ft | 400 kts | 285° |
| 2026-04-26 13:40 | 27.62905 | -83.77776 | 37997 ft | 400 kts | 285° |
| 2026-04-26 13:40 | 27.64001 | -83.83936 | 37994 ft | 400 kts | 285° |
| 2026-04-26 13:41 | 27.65087 | -83.90097 | 37999 ft | 401 kts | 284° |
| 2026-04-26 13:41 | 27.66174 | -83.96266 | 37992 ft | 401 kts | 284° |
| 2026-04-26 13:42 | 27.67264 | -84.02438 | 37998 ft | 401 kts | 284° |
| 2026-04-26 13:42 | 27.68352 | -84.08609 | 37993 ft | 401 kts | 284° |
| 2026-04-26 13:43 | 27.69442 | -84.14791 | 37997 ft | 402 kts | 284° |
| 2026-04-26 13:43 | 27.70524 | -84.20967 | 37995 ft | 402 kts | 284° |
| 2026-04-26 13:44 | 27.71593 | -84.27156 | 37998 ft | 402 kts | 284° |
| 2026-04-26 13:44 | 27.72665 | -84.33356 | 38002 ft | 402 kts | 284° |
| 2026-04-26 13:45 | 27.73738 | -84.39542 | 38003 ft | 402 kts | 284° |
| 2026-04-26 13:45 | 27.74814 | -84.45741 | 38003 ft | 402 kts | 284° |
| 2026-04-26 13:46 | 27.75884 | -84.51944 | 38007 ft | 403 kts | 284° |
| 2026-04-26 13:46 | 27.76939 | -84.58112 | 38006 ft | 402 kts | 284° |
| 2026-04-26 13:47 | 27.78004 | -84.64311 | 38008 ft | 402 kts | 284° |
| 2026-04-26 13:47 | 27.79066 | -84.70497 | 38013 ft | 401 kts | 284° |
| 2026-04-26 13:48 | 27.80118 | -84.76676 | 38006 ft | 401 kts | 284° |
| 2026-04-26 13:48 | 27.81167 | -84.82853 | 38010 ft | 400 kts | 284° |
| 2026-04-26 13:49 | 27.82221 | -84.89017 | 38007 ft | 399 kts | 284° |
| 2026-04-26 13:49 | 27.83267 | -84.95177 | 38011 ft | 399 kts | 284° |
| 2026-04-26 13:50 | 27.84307 | -85.01329 | 38010 ft | 398 kts | 284° |
| 2026-04-26 13:50 | 27.85338 | -85.07478 | 38015 ft | 398 kts | 284° |
| 2026-04-26 13:51 | 27.86368 | -85.13608 | 38011 ft | 397 kts | 284° |
| 2026-04-26 13:51 | 27.87395 | -85.19743 | 38016 ft | 397 kts | 284° |
| 2026-04-26 13:52 | 27.88459 | -85.25853 | 38011 ft | 394 kts | 288° |
| 2026-04-26 13:52 | 27.90198 | -85.31665 | 38011 ft | 392 kts | 291° |
| 2026-04-26 13:53 | 27.91969 | -85.37501 | 38014 ft | 392 kts | 291° |
| 2026-04-26 13:53 | 27.93727 | -85.43335 | 38016 ft | 391 kts | 291° |
| 2026-04-26 13:54 | 27.95480 | -85.49153 | 38014 ft | 391 kts | 291° |
| 2026-04-26 13:54 | 27.97233 | -85.54966 | 38015 ft | 390 kts | 291° |
| 2026-04-26 13:55 | 27.99554 | -85.62687 | 38022 ft | 389 kts | 291° |
| 2026-04-26 13:56 | 28.02457 | -85.72339 | 38024 ft | 387 kts | 291° |
| 2026-04-26 13:56 | 28.04188 | -85.78098 | 38022 ft | 386 kts | 291° |
| 2026-04-26 13:57 | 28.05902 | -85.83820 | 38023 ft | 385 kts | 291° |
| 2026-04-26 13:57 | 28.07626 | -85.89604 | 38015 ft | 385 kts | 291° |
| 2026-04-26 13:58 | 28.09333 | -85.95347 | 38014 ft | 385 kts | 291° |
| 2026-04-26 13:58 | 28.11023 | -86.01050 | 38014 ft | 384 kts | 291° |
| 2026-04-26 13:59 | 28.12723 | -86.06785 | 38020 ft | 384 kts | 291° |
| 2026-04-26 13:59 | 28.14426 | -86.12516 | 38024 ft | 383 kts | 291° |
| 2026-04-26 14:00 | 28.17808 | -86.23963 | 38017 ft | 383 kts | 291° |
| 2026-04-26 14:01 | 28.19493 | -86.29679 | 38016 ft | 382 kts | 291° |
| 2026-04-26 14:01 | 28.21174 | -86.35391 | 38016 ft | 382 kts | 291° |
| 2026-04-26 14:02 | 28.22851 | -86.41093 | 38010 ft | 381 kts | 291° |
| 2026-04-26 14:02 | 28.24525 | -86.46793 | 38020 ft | 380 kts | 291° |
| 2026-04-26 14:03 | 28.26193 | -86.52486 | 38020 ft | 380 kts | 291° |
| 2026-04-26 14:03 | 28.27849 | -86.58166 | 38020 ft | 379 kts | 291° |
| 2026-04-26 14:04 | 28.29507 | -86.63844 | 38016 ft | 379 kts | 291° |
| 2026-04-26 14:04 | 28.31162 | -86.69526 | 38015 ft | 379 kts | 291° |
| 2026-04-26 14:05 | 28.32820 | -86.75198 | 38017 ft | 378 kts | 291° |
| 2026-04-26 14:05 | 28.34484 | -86.80859 | 38012 ft | 378 kts | 291° |
| 2026-04-26 14:06 | 28.36135 | -86.86483 | 38023 ft | 377 kts | 291° |
| 2026-04-26 14:06 | 28.37781 | -86.92136 | 38016 ft | 377 kts | 291° |
| 2026-04-26 14:07 | 28.39425 | -86.97788 | 38018 ft | 376 kts | 291° |
| 2026-04-26 14:07 | 28.40790 | -87.02473 | 38021 ft | 376 kts | 291° |
| 2026-04-26 14:08 | 28.42423 | -87.08112 | 38021 ft | 375 kts | 290° |
| 2026-04-26 14:08 | 28.44054 | -87.13740 | 38021 ft | 375 kts | 291° |
| 2026-04-26 14:09 | 28.45686 | -87.19362 | 38015 ft | 375 kts | 290° |
| 2026-04-26 14:09 | 28.47311 | -87.24980 | 38019 ft | 374 kts | 290° |
| 2026-04-26 14:10 | 28.48932 | -87.30599 | 38021 ft | 374 kts | 290° |
| 2026-04-26 14:10 | 28.50551 | -87.36208 | 38018 ft | 373 kts | 290° |
| 2026-04-26 14:11 | 28.52967 | -87.44617 | 38020 ft | 373 kts | 290° |
| 2026-04-26 14:11 | 28.54569 | -87.50208 | 38013 ft | 372 kts | 290° |
| 2026-04-26 14:12 | 28.56168 | -87.55805 | 38014 ft | 372 kts | 290° |
| 2026-04-26 14:12 | 28.57765 | -87.61393 | 38014 ft | 371 kts | 290° |
| 2026-04-26 14:13 | 28.60158 | -87.69759 | 38013 ft | 370 kts | 290° |
| 2026-04-26 14:14 | 28.61739 | -87.75329 | 38012 ft | 370 kts | 290° |
| 2026-04-26 14:14 | 28.63309 | -87.80863 | 38012 ft | 369 kts | 290° |
| 2026-04-26 14:15 | 28.64889 | -87.86425 | 38017 ft | 369 kts | 290° |
| 2026-04-26 14:15 | 28.66461 | -87.91983 | 38012 ft | 369 kts | 290° |
| 2026-04-26 14:16 | 28.68032 | -87.97542 | 38012 ft | 368 kts | 290° |
| 2026-04-26 14:16 | 28.69596 | -88.03085 | 38008 ft | 368 kts | 290° |
| 2026-04-26 14:17 | 28.71154 | -88.08630 | 38008 ft | 367 kts | 290° |
| 2026-04-26 14:17 | 28.72707 | -88.14175 | 38013 ft | 367 kts | 290° |
| 2026-04-26 14:18 | 28.74266 | -88.19718 | 38006 ft | 367 kts | 290° |
| 2026-04-26 14:18 | 28.75826 | -88.25249 | 38014 ft | 367 kts | 290° |
| 2026-04-26 14:19 | 28.77368 | -88.30782 | 38014 ft | 366 kts | 290° |
| 2026-04-26 14:19 | 28.78908 | -88.36313 | 38011 ft | 366 kts | 290° |
| 2026-04-26 14:20 | 28.80448 | -88.41845 | 38007 ft | 366 kts | 290° |
| 2026-04-26 14:20 | 28.81977 | -88.47342 | 38011 ft | 366 kts | 290° |
| 2026-04-26 14:21 | 28.83511 | -88.52877 | 38005 ft | 366 kts | 290° |
| 2026-04-26 14:21 | 28.85043 | -88.58413 | 38011 ft | 366 kts | 290° |
| 2026-04-26 14:22 | 28.86571 | -88.63955 | 38005 ft | 366 kts | 290° |
| 2026-04-26 14:22 | 28.88103 | -88.69490 | 38007 ft | 366 kts | 290° |
| 2026-04-26 14:23 | 28.89455 | -88.75096 | 38002 ft | 367 kts | 287° |
| 2026-04-26 14:23 | 28.90619 | -88.80772 | 38004 ft | 367 kts | 286° |
| 2026-04-26 14:24 | 28.91778 | -88.86440 | 38012 ft | 367 kts | 286° |
| 2026-04-26 14:24 | 28.92964 | -88.92071 | 38010 ft | 367 kts | 287° |
| 2026-04-26 14:25 | 28.94168 | -88.97723 | 38010 ft | 367 kts | 287° |
| 2026-04-26 14:25 | 28.95366 | -89.03375 | 38011 ft | 366 kts | 287° |
| 2026-04-26 14:26 | 28.96562 | -89.09030 | 38016 ft | 366 kts | 287° |
| 2026-04-26 14:26 | 28.97757 | -89.14687 | 38011 ft | 366 kts | 287° |
| 2026-04-26 14:27 | 28.98948 | -89.20346 | 38010 ft | 366 kts | 287° |
| 2026-04-26 14:27 | 29.00137 | -89.26004 | 37999 ft | 366 kts | 287° |
| 2026-04-26 14:28 | 29.01318 | -89.31655 | 38003 ft | 366 kts | 286° |
| 2026-04-26 14:28 | 29.02494 | -89.37316 | 38008 ft | 366 kts | 286° |
| 2026-04-26 14:29 | 29.03669 | -89.42973 | 38008 ft | 366 kts | 287° |
| 2026-04-26 14:29 | 29.04844 | -89.48592 | 38007 ft | 366 kts | 287° |
| 2026-04-26 14:30 | 29.06026 | -89.54240 | 38003 ft | 365 kts | 287° |
| 2026-04-26 14:30 | 29.07200 | -89.59893 | 38001 ft | 365 kts | 286° |
| 2026-04-26 14:31 | 29.08362 | -89.65548 | 38003 ft | 365 kts | 286° |
| 2026-04-26 14:31 | 29.09524 | -89.71205 | 38004 ft | 365 kts | 286° |
| 2026-04-26 14:32 | 29.10685 | -89.76857 | 37999 ft | 365 kts | 286° |
| 2026-04-26 14:32 | 29.11849 | -89.82518 | 37999 ft | 365 kts | 286° |
| 2026-04-26 14:33 | 29.13008 | -89.88173 | 38002 ft | 365 kts | 286° |
| 2026-04-26 14:33 | 29.14165 | -89.93833 | 37998 ft | 366 kts | 286° |
| 2026-04-26 14:34 | 29.15319 | -89.99500 | 37999 ft | 366 kts | 286° |
| 2026-04-26 14:34 | 29.16466 | -90.05169 | 38002 ft | 366 kts | 286° |
| 2026-04-26 14:35 | 29.17600 | -90.10846 | 38005 ft | 366 kts | 285° |
| 2026-04-26 14:35 | 29.18434 | -90.16610 | 38002 ft | 368 kts | 282° |
| 2026-04-26 14:36 | 29.19111 | -90.22418 | 38005 ft | 368 kts | 282° |
| 2026-04-26 14:36 | 29.19805 | -90.28216 | 38001 ft | 368 kts | 282° |
| 2026-04-26 14:37 | 29.20531 | -90.33976 | 38005 ft | 368 kts | 282° |
| 2026-04-26 14:37 | 29.21273 | -90.39767 | 37997 ft | 368 kts | 282° |
| 2026-04-26 14:38 | 29.22011 | -90.45560 | 37998 ft | 368 kts | 282° |
| 2026-04-26 14:38 | 29.22739 | -90.51360 | 37997 ft | 368 kts | 282° |
| 2026-04-26 14:39 | 29.23466 | -90.57158 | 37993 ft | 368 kts | 282° |
| 2026-04-26 14:39 | 29.24185 | -90.62958 | 37993 ft | 368 kts | 282° |
| 2026-04-26 14:40 | 29.24907 | -90.68760 | 37993 ft | 368 kts | 282° |
| 2026-04-26 14:40 | 29.25627 | -90.74558 | 37990 ft | 368 kts | 282° |
| 2026-04-26 14:41 | 29.26342 | -90.80359 | 37988 ft | 368 kts | 282° |
| 2026-04-26 14:41 | 29.27054 | -90.86165 | 37990 ft | 368 kts | 282° |
| 2026-04-26 14:42 | 29.27763 | -90.91968 | 37984 ft | 368 kts | 282° |
| 2026-04-26 14:42 | 29.28475 | -90.97773 | 37982 ft | 368 kts | 282° |
| 2026-04-26 14:43 | 29.29187 | -91.03575 | 37983 ft | 368 kts | 282° |
| 2026-04-26 14:43 | 29.29892 | -91.09385 | 37982 ft | 368 kts | 282° |
| 2026-04-26 14:44 | 29.30589 | -91.15193 | 37980 ft | 368 kts | 282° |
| 2026-04-26 14:44 | 29.31278 | -91.20999 | 37973 ft | 368 kts | 282° |
| 2026-04-26 14:45 | 29.31972 | -91.26766 | 37974 ft | 368 kts | 282° |
| 2026-04-26 14:45 | 29.32673 | -91.32581 | 37970 ft | 368 kts | 282° |
| 2026-04-26 14:46 | 29.33371 | -91.38402 | 37970 ft | 368 kts | 282° |
| 2026-04-26 14:46 | 29.34059 | -91.44218 | 37970 ft | 369 kts | 282° |
| 2026-04-26 14:47 | 29.34744 | -91.50043 | 37967 ft | 369 kts | 282° |
| 2026-04-26 14:47 | 29.35428 | -91.55878 | 37975 ft | 369 kts | 282° |
| 2026-04-26 14:48 | 29.36110 | -91.61722 | 37972 ft | 370 kts | 282° |
| 2026-04-26 14:48 | 29.36793 | -91.67559 | 37970 ft | 370 kts | 282° |
| 2026-04-26 14:49 | 29.37473 | -91.73399 | 37972 ft | 370 kts | 282° |
| 2026-04-26 14:49 | 29.38151 | -91.79239 | 37968 ft | 370 kts | 282° |
| 2026-04-26 14:50 | 29.38821 | -91.85050 | 37970 ft | 370 kts | 282° |
| 2026-04-26 14:50 | 29.39492 | -91.90892 | 37963 ft | 370 kts | 282° |
| 2026-04-26 14:51 | 29.40165 | -91.96741 | 37966 ft | 370 kts | 282° |
| 2026-04-26 14:51 | 29.40835 | -92.02596 | 37964 ft | 370 kts | 282° |
| 2026-04-26 14:52 | 29.41497 | -92.08454 | 37963 ft | 370 kts | 282° |
| 2026-04-26 14:52 | 29.42158 | -92.14320 | 37963 ft | 370 kts | 281° |
| 2026-04-26 14:53 | 29.42815 | -92.20144 | 37963 ft | 370 kts | 282° |
| 2026-04-26 14:53 | 29.43474 | -92.26003 | 37964 ft | 370 kts | 281° |
| 2026-04-26 14:54 | 29.44128 | -92.31867 | 37967 ft | 370 kts | 281° |
| 2026-04-26 14:54 | 29.44780 | -92.37728 | 37972 ft | 370 kts | 281° |
| 2026-04-26 14:55 | 29.45428 | -92.43557 | 37966 ft | 370 kts | 281° |
| 2026-04-26 14:55 | 29.46040 | -92.49423 | 37961 ft | 371 kts | 280° |
| 2026-04-26 14:56 | 29.46567 | -92.55316 | 37964 ft | 371 kts | 280° |
| 2026-04-26 14:56 | 29.47081 | -92.61183 | 37967 ft | 370 kts | 280° |
| 2026-04-26 14:57 | 29.47608 | -92.67063 | 37965 ft | 370 kts | 280° |
| 2026-04-26 14:57 | 29.48136 | -92.72945 | 37968 ft | 369 kts | 280° |
| 2026-04-26 14:58 | 29.48577 | -92.77817 | 37957 ft | 369 kts | 280° |
| 2026-04-26 14:58 | 29.49108 | -92.83686 | 37958 ft | 369 kts | 280° |
| 2026-04-26 14:59 | 29.49629 | -92.89554 | 37956 ft | 369 kts | 280° |
| 2026-04-26 14:59 | 29.50145 | -92.95419 | 37956 ft | 369 kts | 279° |
| 2026-04-26 15:00 | 29.50655 | -93.01271 | 37956 ft | 369 kts | 279° |
| 2026-04-26 15:00 | 29.51167 | -93.07149 | 37955 ft | 369 kts | 279° |
| 2026-04-26 15:01 | 29.51678 | -93.13001 | 37966 ft | 368 kts | 279° |
| 2026-04-26 15:01 | 29.52192 | -93.18850 | 37959 ft | 368 kts | 279° |
| 2026-04-26 15:02 | 29.52703 | -93.24691 | 37962 ft | 368 kts | 279° |
| 2026-04-26 15:02 | 29.53195 | -93.30535 | 37956 ft | 367 kts | 279° |
| 2026-04-26 15:03 | 29.53685 | -93.36368 | 37961 ft | 367 kts | 279° |
| 2026-04-26 15:03 | 29.54181 | -93.42202 | 37964 ft | 366 kts | 279° |
| 2026-04-26 15:04 | 29.54671 | -93.47986 | 37968 ft | 366 kts | 279° |
| 2026-04-26 15:04 | 29.55163 | -93.53798 | 37955 ft | 366 kts | 279° |
| 2026-04-26 15:05 | 29.55648 | -93.59621 | 37954 ft | 365 kts | 279° |
| 2026-04-26 15:05 | 29.56126 | -93.65434 | 37953 ft | 365 kts | 279° |
| 2026-04-26 15:06 | 29.56602 | -93.71248 | 37964 ft | 365 kts | 278° |
| 2026-04-26 15:06 | 29.57080 | -93.77019 | 37955 ft | 365 kts | 279° |
| 2026-04-26 15:07 | 29.57791 | -93.85710 | 37948 ft | 364 kts | 278° |
| 2026-04-26 15:07 | 29.58262 | -93.91501 | 37952 ft | 364 kts | 278° |
| 2026-04-26 15:08 | 29.58730 | -93.97281 | 37953 ft | 363 kts | 278° |
| 2026-04-26 15:08 | 29.59191 | -94.03062 | 37950 ft | 363 kts | 278° |
| 2026-04-26 15:09 | 29.59649 | -94.08838 | 37941 ft | 363 kts | 278° |
| 2026-04-26 15:09 | 29.60105 | -94.14602 | 37946 ft | 362 kts | 278° |
| 2026-04-26 15:10 | 29.60486 | -94.19390 | 37936 ft | 362 kts | 278° |
| 2026-04-26 15:10 | 29.61016 | -94.26127 | 37936 ft | 362 kts | 278° |
| 2026-04-26 15:11 | 29.61461 | -94.31839 | 37937 ft | 361 kts | 278° |
| 2026-04-26 15:11 | 29.61908 | -94.37589 | 37938 ft | 361 kts | 278° |
| 2026-04-26 15:12 | 29.62346 | -94.43332 | 37943 ft | 361 kts | 278° |
| 2026-04-26 15:12 | 29.62783 | -94.49074 | 37932 ft | 360 kts | 278° |
| 2026-04-26 15:13 | 29.63226 | -94.54810 | 37945 ft | 360 kts | 278° |
| 2026-04-26 15:13 | 29.63664 | -94.60543 | 37932 ft | 360 kts | 278° |
| 2026-04-26 15:14 | 29.64099 | -94.66288 | 37946 ft | 360 kts | 278° |
| 2026-04-26 15:14 | 29.64529 | -94.72016 | 37933 ft | 360 kts | 278° |
| 2026-04-26 15:15 | 29.64950 | -94.77715 | 37924 ft | 359 kts | 277° |
| 2026-04-26 15:15 | 29.65367 | -94.83442 | 37925 ft | 359 kts | 277° |
| 2026-04-26 15:16 | 29.65792 | -94.89168 | 37922 ft | 359 kts | 277° |
| 2026-04-26 15:16 | 29.66216 | -94.94890 | 37927 ft | 359 kts | 277° |
| 2026-04-26 15:17 | 29.66562 | -94.99650 | 37919 ft | 359 kts | 277° |
| 2026-04-26 15:17 | 29.67045 | -95.06347 | 37918 ft | 359 kts | 277° |
| 2026-04-26 15:18 | 29.67454 | -95.12063 | 37923 ft | 359 kts | 277° |
| 2026-04-26 15:18 | 29.67861 | -95.17749 | 37925 ft | 359 kts | 277° |
| 2026-04-26 15:19 | 29.68268 | -95.23461 | 37926 ft | 359 kts | 277° |
| 2026-04-26 15:19 | 29.68674 | -95.29191 | 37925 ft | 359 kts | 277° |
| 2026-04-26 15:20 | 29.69080 | -95.34915 | 37927 ft | 359 kts | 277° |
| 2026-04-26 15:20 | 29.69477 | -95.40635 | 37925 ft | 359 kts | 277° |
| 2026-04-26 15:21 | 29.69866 | -95.46316 | 37917 ft | 358 kts | 277° |
| 2026-04-26 15:21 | 29.70255 | -95.52032 | 37918 ft | 358 kts | 277° |
| 2026-04-26 15:22 | 29.70643 | -95.57746 | 37918 ft | 358 kts | 277° |
| 2026-04-26 15:22 | 29.71032 | -95.63465 | 37913 ft | 358 kts | 277° |
| 2026-04-26 15:23 | 29.71415 | -95.69184 | 37912 ft | 358 kts | 277° |
| 2026-04-26 15:23 | 29.71902 | -95.74893 | 37903 ft | 358 kts | 278° |
| 2026-04-26 15:24 | 29.72464 | -95.80584 | 37926 ft | 358 kts | 278° |
| 2026-04-26 15:24 | 29.73012 | -95.86267 | 37932 ft | 358 kts | 278° |
| 2026-04-26 15:25 | 29.73449 | -95.91004 | 37945 ft | 358 kts | 278° |
| 2026-04-26 15:25 | 29.74053 | -95.97672 | 37939 ft | 358 kts | 278° |
| 2026-04-26 15:26 | 29.74562 | -96.03327 | 37914 ft | 358 kts | 278° |
| 2026-04-26 15:26 | 29.75075 | -96.09066 | 37900 ft | 358 kts | 278° |
| 2026-04-26 15:27 | 29.75581 | -96.14723 | 37868 ft | 358 kts | 278° |
| 2026-04-26 15:27 | 29.76090 | -96.20414 | 37865 ft | 358 kts | 278° |
| 2026-04-26 15:28 | 29.76596 | -96.26110 | 37877 ft | 358 kts | 278° |
| 2026-04-26 15:28 | 29.77103 | -96.31809 | 37867 ft | 357 kts | 277° |
| 2026-04-26 15:29 | 29.77603 | -96.37504 | 37864 ft | 357 kts | 277° |
| 2026-04-26 15:30 | 29.78600 | -96.48884 | 37840 ft | 357 kts | 277° |
| 2026-04-26 15:30 | 29.79089 | -96.54573 | 37818 ft | 357 kts | 277° |
| 2026-04-26 15:31 | 29.79816 | -96.63067 | 37779 ft | 357 kts | 277° |
| 2026-04-26 15:32 | 29.80389 | -96.69703 | 37774 ft | 356 kts | 277° |
| 2026-04-26 15:32 | 29.81034 | -96.77262 | 37776 ft | 356 kts | 277° |
| 2026-04-26 15:33 | 29.81513 | -96.82945 | 37786 ft | 356 kts | 277° |
| 2026-04-26 15:33 | 29.81982 | -96.88617 | 37788 ft | 356 kts | 277° |
| 2026-04-26 15:34 | 29.82455 | -96.94304 | 37796 ft | 356 kts | 277° |
| 2026-04-26 15:34 | 29.82923 | -96.99952 | 37808 ft | 356 kts | 277° |
| 2026-04-26 15:35 | 29.83393 | -97.05636 | 37799 ft | 356 kts | 277° |
| 2026-04-26 15:35 | 29.83870 | -97.11326 | 37799 ft | 356 kts | 277° |
| 2026-04-26 15:36 | 29.84332 | -97.17003 | 37809 ft | 356 kts | 277° |
| 2026-04-26 15:36 | 29.84788 | -97.22657 | 37804 ft | 356 kts | 277° |
| 2026-04-26 15:37 | 29.85252 | -97.28370 | 37810 ft | 356 kts | 277° |
| 2026-04-26 15:37 | 29.85707 | -97.34016 | 37817 ft | 356 kts | 277° |
| 2026-04-26 15:38 | 29.86165 | -97.39696 | 37832 ft | 356 kts | 277° |
| 2026-04-26 15:38 | 29.86616 | -97.45372 | 37838 ft | 356 kts | 276° |
| 2026-04-26 15:39 | 29.87066 | -97.51040 | 37866 ft | 355 kts | 276° |
| 2026-04-26 15:39 | 29.87360 | -97.54825 | 37869 ft | 355 kts | 276° |